Main page
METAR-TAF:

METAR-TAF

Airports :

Najaf, Iraq

Al Najaf International Airport

latitude: 31-59-23N, longitude: 44-24-15E, elevation: 31 m

Current weather observation

The report was made 42 minutes ago, at 03:00 UTC
Wind 9 kt from the North/Northwest
Temperature 24°C
Humidity 25%
Pressure 1008 hPa
Visibility: 6000 m

METAR: ORNI 290300Z 33009KT 6000 NSC 24/03 Q1008 NOSIG

Time: 06:42 (03:42 UTC)

Forecast

The report was made 5 hours and 12 minutes ago, at 22:30 UTC
Forecast valid from 29 at 00 UTC to 29 at 24 UTC
Wind 6 kt from the North/Northwest
Visibility: 7000 m
Becoming
from 29 at 08 UTC to 29 at 10 UTC
Wind 3 kt from variable directions

TAF: ORNI 282230Z 2900/2924 33006KT 7000 NSC BECMG 2908/2910 VRB03KT

Weather observations and forecasts of more than 4000 airports (METAR and TAF reports).

The available stations are represented by yellow and red dots on the map.

Hover mouse over dot to see the name of the station.

Then click to see weather observations and forecasts.

To change the map : click on the green buttons with a black cross to zoom in, on the green button with a dash to zoom out, or on the green arrows for adjacent maps.


METAR-TAF: